createdAt,value
2022-08-02T00:00:57.299Z,0.80
2022-08-02T00:01:59.776Z,0.80
2022-08-02T00:03:02.203Z,1.30
2022-08-02T00:04:04.668Z,0.70
2022-08-02T00:05:08.418Z,0.82
2022-08-02T00:06:10.865Z,0.95
2022-08-02T00:07:15.010Z,1.10
2022-08-02T00:08:17.367Z,0.93
2022-08-02T00:09:19.732Z,1.10
2022-08-02T00:10:23.832Z,1.20
2022-08-02T00:11:26.241Z,1.00
2022-08-02T00:12:28.555Z,1.02
2022-08-02T00:13:30.915Z,0.93
2022-08-02T00:14:33.367Z,1.10
2022-08-02T00:15:35.753Z,1.10
2022-08-02T00:16:38.699Z,1.20
2022-08-02T00:17:41.092Z,0.82
2022-08-02T00:18:44.410Z,0.90
2022-08-02T00:19:46.827Z,1.30
2022-08-02T00:20:49.150Z,1.02
2022-08-02T00:21:51.649Z,1.38
2022-08-02T00:22:53.928Z,0.90
2022-08-02T00:24:03.355Z,1.40
2022-08-02T00:25:18.408Z,1.10
2022-08-02T00:26:20.787Z,0.98
2022-08-02T00:27:23.063Z,1.10
2022-08-02T00:28:27.358Z,1.00
2022-08-02T00:29:31.277Z,1.05
2022-08-02T00:30:33.613Z,0.90
2022-08-02T00:31:35.976Z,1.30
2022-08-02T00:32:38.316Z,1.17
2022-08-02T00:34:05.317Z,1.20
2022-08-02T00:35:02.871Z,1.38
2022-08-02T00:36:05.172Z,1.30
2022-08-02T00:37:07.634Z,1.20
2022-08-02T00:38:09.859Z,1.02
2022-08-02T00:39:34.665Z,1.40
2022-08-02T00:40:34.568Z,1.15
2022-08-02T00:41:45.878Z,1.30
2022-08-02T00:42:59.830Z,1.40
2022-08-02T00:44:02.087Z,1.30
2022-08-02T00:45:04.789Z,1.50
2022-08-02T00:46:07.025Z,1.48
2022-08-02T00:47:09.587Z,1.55
2022-08-02T00:48:13.355Z,1.48
2022-08-02T00:49:15.743Z,1.65
2022-08-02T00:50:19.087Z,1.52
2022-08-02T00:51:21.318Z,1.63
2022-08-02T00:52:24.252Z,1.50
2022-08-02T00:53:26.581Z,1.73
2022-08-02T00:54:28.941Z,1.77
2022-08-02T00:55:32.540Z,1.60
2022-08-02T00:56:35.422Z,1.40
2022-08-02T00:57:37.810Z,1.38
2022-08-02T00:58:40.053Z,1.38
2022-08-02T00:59:42.379Z,1.30
2022-08-02T01:00:44.712Z,1.80
2022-08-02T01:01:56.366Z,1.30
2022-08-02T01:02:59.993Z,1.42
2022-08-02T01:04:02.242Z,1.33
2022-08-02T01:05:05.141Z,1.45
2022-08-02T01:06:11.421Z,1.30
2022-08-02T01:07:14.619Z,1.40
2022-08-02T01:08:17.579Z,1.40
2022-08-02T01:09:19.905Z,1.40
2022-08-02T01:10:22.275Z,1.40
2022-08-02T01:11:24.785Z,1.98
2022-08-02T01:12:27.725Z,1.40
2022-08-02T01:13:30.010Z,1.10
2022-08-02T01:14:32.328Z,1.42
2022-08-02T01:15:40.845Z,1.42
2022-08-02T01:16:49.867Z,1.40
2022-08-02T01:17:58.224Z,1.02
2022-08-02T01:19:26.224Z,1.50
2022-08-02T01:20:39.348Z,1.42
2022-08-02T01:22:16.780Z,1.40
2022-08-02T01:23:43.802Z,1.30
2022-08-02T01:25:09.080Z,1.30
2022-08-02T01:26:14.159Z,1.25
2022-08-02T01:27:20.442Z,1.27
2022-08-02T01:28:50.780Z,1.27
2022-08-02T01:29:59.567Z,1.50
2022-08-02T01:31:14.262Z,1.58
2022-08-02T01:32:23.571Z,1.13
2022-08-02T01:33:43.146Z,1.25
2022-08-02T01:34:51.875Z,1.10
2022-08-02T01:35:57.649Z,1.45
2022-08-02T01:37:11.211Z,1.30
2022-08-02T01:38:32.855Z,1.17
2022-08-02T01:39:38.986Z,1.25
2022-08-02T01:40:44.381Z,1.25
2022-08-02T01:41:48.537Z,1.30
2022-08-02T01:43:00.795Z,1.20
2022-08-02T01:44:05.007Z,1.30
2022-08-02T01:45:09.154Z,1.20
2022-08-02T01:46:13.964Z,1.10
2022-08-02T01:47:24.245Z,1.30
2022-08-02T01:48:29.608Z,1.38
2022-08-02T01:49:33.658Z,1.38
2022-08-02T01:50:38.116Z,1.35
2022-08-02T01:52:01.690Z,1.20
2022-08-02T01:53:08.224Z,1.25
2022-08-02T01:54:14.489Z,1.55
2022-08-02T01:55:23.097Z,1.33
2022-08-02T01:56:39.130Z,1.00
2022-08-02T01:57:46.409Z,1.38
2022-08-02T01:58:49.144Z,1.48
2022-08-02T01:59:54.839Z,1.20
2022-08-02T02:00:59.456Z,1.58
2022-08-02T02:02:03.081Z,1.40
2022-08-02T02:03:08.059Z,1.10
2022-08-02T02:04:16.294Z,1.30
2022-08-02T02:05:20.663Z,1.17
2022-08-02T02:06:24.111Z,1.60
2022-08-02T02:07:27.427Z,1.48
2022-08-02T02:08:34.454Z,1.33
2022-08-02T02:09:49.262Z,1.20
2022-08-02T02:10:54.225Z,1.38
2022-08-02T02:12:11.835Z,1.50
2022-08-02T02:13:18.517Z,1.40
2022-08-02T02:14:21.844Z,1.48
2022-08-02T02:15:25.432Z,1.40
2022-08-02T02:16:30.392Z,1.50
2022-08-02T02:18:11.422Z,1.35
2022-08-02T02:18:56.949Z,1.45
2022-08-02T02:20:02.369Z,1.48
2022-08-02T02:21:04.935Z,1.60
2022-08-02T02:22:07.265Z,1.50
2022-08-02T02:23:11.182Z,1.55
2022-08-02T02:24:15.707Z,1.30
2022-08-02T02:25:36.048Z,1.25
2022-08-02T02:26:52.431Z,1.15
2022-08-02T02:28:02.823Z,1.40
2022-08-02T02:29:08.813Z,1.20
2022-08-02T02:30:12.265Z,1.30
2022-08-02T02:31:20.126Z,1.50
2022-08-02T02:32:24.978Z,1.33
2022-08-02T02:33:30.603Z,1.35
2022-08-02T02:34:37.778Z,1.75
2022-08-02T02:35:42.112Z,1.30
2022-08-02T02:36:50.555Z,1.30
2022-08-02T02:37:54.750Z,1.33
2022-08-02T02:39:04.066Z,1.15
2022-08-02T02:40:08.481Z,1.48
2022-08-02T02:41:12.837Z,1.30
2022-08-02T02:42:17.477Z,1.38
2022-08-02T02:43:21.542Z,1.40
2022-08-02T02:44:24.742Z,1.40
2022-08-02T02:45:28.005Z,1.60
2022-08-02T02:46:31.238Z,1.90
2022-08-02T02:47:40.725Z,1.63
2022-08-02T02:48:44.175Z,1.20
2022-08-02T02:49:49.981Z,1.50
2022-08-02T02:50:53.595Z,1.38
2022-08-02T02:51:57.399Z,1.48
2022-08-02T02:53:01.169Z,1.70
2022-08-02T02:54:33.643Z,1.45
2022-08-02T02:55:28.518Z,1.40
2022-08-02T02:56:31.085Z,1.50
2022-08-02T02:57:34.025Z,1.98
2022-08-02T02:58:38.605Z,1.50
2022-08-02T02:59:42.949Z,1.50
2022-08-02T03:01:10.842Z,1.23
2022-08-02T03:02:14.523Z,1.40
2022-08-02T03:03:19.597Z,1.35
2022-08-02T03:04:25.000Z,1.35
2022-08-02T03:05:27.486Z,1.42
2022-08-02T03:06:30.620Z,1.23
2022-08-02T03:07:34.215Z,1.90
2022-08-02T03:08:36.527Z,1.85
2022-08-02T03:09:39.259Z,1.90
2022-08-02T03:10:44.235Z,2.03
2022-08-02T03:11:46.794Z,1.55
2022-08-02T03:12:49.653Z,2.60
2022-08-02T03:13:53.423Z,2.90
2022-08-02T03:14:57.520Z,6.28
2022-08-02T03:16:00.317Z,12.02
2022-08-02T03:17:02.599Z,2.33
2022-08-02T03:18:05.188Z,6.30
2022-08-02T03:19:07.455Z,6.05
2022-08-02T03:20:12.866Z,2.58
2022-08-02T03:21:15.340Z,1.50
2022-08-02T03:22:17.616Z,1.30
2022-08-02T03:23:19.883Z,1.70
2022-08-02T03:24:27.837Z,1.38
2022-08-02T03:25:30.799Z,1.60
2022-08-02T03:26:33.070Z,1.58
2022-08-02T03:27:35.536Z,1.80
2022-08-02T03:28:37.892Z,1.35
2022-08-02T03:29:40.177Z,1.70
2022-08-02T03:30:42.495Z,1.50
2022-08-02T03:31:46.418Z,1.65
2022-08-02T03:32:48.949Z,1.50
2022-08-02T03:33:51.757Z,1.40
2022-08-02T03:34:54.649Z,1.45
2022-08-02T03:36:01.466Z,1.52
2022-08-02T03:37:04.161Z,1.85
2022-08-02T03:38:07.487Z,1.65
2022-08-02T03:39:10.794Z,1.45
2022-08-02T03:40:13.536Z,1.55
2022-08-02T03:41:18.678Z,1.80
2022-08-02T03:42:25.428Z,3.10
2022-08-02T03:43:29.007Z,2.30
2022-08-02T03:44:32.038Z,2.00
2022-08-02T03:45:34.762Z,2.00
2022-08-02T03:46:39.524Z,2.05
2022-08-02T03:47:43.377Z,2.97
2022-08-02T03:48:47.677Z,8.13
2022-08-02T03:49:51.424Z,9.95
2022-08-02T03:50:54.640Z,3.28
2022-08-02T03:51:57.098Z,5.75
2022-08-02T03:52:59.925Z,5.72
2022-08-02T03:54:03.299Z,2.10
2022-08-02T03:55:05.765Z,2.05
2022-08-02T03:56:09.448Z,2.33
2022-08-02T03:57:11.956Z,1.90
2022-08-02T03:58:21.700Z,4.50
2022-08-02T03:59:23.979Z,9.10
2022-08-02T04:00:26.297Z,5.00
2022-08-02T04:01:28.647Z,2.85
2022-08-02T04:02:31.011Z,10.43
2022-08-02T04:03:33.332Z,8.50
2022-08-02T04:04:35.719Z,3.33
2022-08-02T04:05:38.247Z,6.75
2022-08-02T04:07:00.554Z,2.95
2022-08-02T04:08:36.263Z,2.08
2022-08-02T04:09:25.581Z,4.95
2022-08-02T04:10:27.853Z,1.90
2022-08-02T04:11:32.807Z,1.90
2022-08-02T04:12:35.260Z,8.52
2022-08-02T04:13:38.748Z,2.35
2022-08-02T04:14:41.451Z,3.15
2022-08-02T04:15:44.573Z,2.70
2022-08-02T04:16:52.701Z,2.58
2022-08-02T04:17:59.447Z,2.45
2022-08-02T04:19:03.798Z,3.03
2022-08-02T04:20:12.964Z,4.03
2022-08-02T04:21:19.417Z,4.65
2022-08-02T04:22:40.364Z,5.13
2022-08-02T04:23:45.432Z,2.58
2022-08-02T04:24:51.836Z,3.45
2022-08-02T04:25:55.584Z,7.90
2022-08-02T04:27:19.081Z,7.53
2022-08-02T04:28:27.760Z,3.10
2022-08-02T04:29:32.992Z,3.72
2022-08-02T04:30:36.847Z,3.80
2022-08-02T04:31:40.369Z,4.20
2022-08-02T04:32:45.479Z,11.50
2022-08-02T04:33:47.889Z,11.98
2022-08-02T04:35:17.741Z,7.95
2022-08-02T04:36:14.947Z,4.22
2022-08-02T04:37:34.609Z,5.00
2022-08-02T04:38:37.065Z,6.65
2022-08-02T04:39:42.557Z,13.32
2022-08-02T04:40:55.825Z,5.45
2022-08-02T04:41:58.283Z,3.72
2022-08-02T04:43:00.638Z,5.10
2022-08-02T04:44:03.125Z,3.30
2022-08-02T04:45:07.187Z,2.78
2022-08-02T04:46:09.587Z,1.85
2022-08-02T04:47:12.058Z,2.55
2022-08-02T04:48:14.391Z,5.63
2022-08-02T04:49:16.753Z,3.10
2022-08-02T04:50:20.881Z,4.95
2022-08-02T04:51:23.126Z,1.88
2022-08-02T04:52:45.530Z,3.53
2022-08-02T04:53:48.236Z,5.25
2022-08-02T04:54:51.277Z,2.25
2022-08-02T04:55:53.618Z,2.10
2022-08-02T04:56:55.837Z,2.28
2022-08-02T04:57:59.162Z,2.13
2022-08-02T04:59:01.582Z,2.10
2022-08-02T05:00:06.099Z,3.38
2022-08-02T05:01:08.442Z,5.72
2022-08-02T05:02:10.984Z,2.85
2022-08-02T05:03:14.584Z,2.60
2022-08-02T05:04:16.811Z,2.83
2022-08-02T05:05:19.192Z,5.55
2022-08-02T05:06:21.480Z,2.08
2022-08-02T05:07:23.789Z,3.60
2022-08-02T05:08:26.146Z,2.10
2022-08-02T05:09:28.661Z,4.28
2022-08-02T05:10:30.937Z,2.10
2022-08-02T05:11:36.519Z,2.22
2022-08-02T05:12:40.161Z,4.40
2022-08-02T05:13:58.723Z,3.17
2022-08-02T05:15:01.983Z,5.30
2022-08-02T05:16:04.654Z,4.38
2022-08-02T05:17:06.917Z,2.92
2022-08-02T05:18:09.378Z,3.65
2022-08-02T05:19:11.719Z,4.55
2022-08-02T05:20:14.608Z,5.03
2022-08-02T05:21:16.929Z,3.67
2022-08-02T05:22:19.273Z,3.13
2022-08-02T05:23:21.698Z,3.60
2022-08-02T05:24:24.065Z,2.72
2022-08-02T05:25:26.529Z,2.30
2022-08-02T05:26:28.844Z,2.05
2022-08-02T05:27:33.086Z,3.03
2022-08-02T05:28:35.365Z,2.38
2022-08-02T05:29:39.003Z,3.17
2022-08-02T05:30:55.543Z,4.32
2022-08-02T05:31:57.859Z,3.15
2022-08-02T05:33:00.167Z,2.47
2022-08-02T05:34:02.456Z,2.92
2022-08-02T05:35:05.110Z,4.00
2022-08-02T05:36:09.416Z,2.15
2022-08-02T05:37:12.187Z,3.33
2022-08-02T05:38:16.147Z,2.90
2022-08-02T05:39:18.930Z,2.60
2022-08-02T05:40:25.943Z,2.38
2022-08-02T05:41:28.674Z,2.65
2022-08-02T05:42:33.751Z,2.45
2022-08-02T05:43:36.081Z,2.45
2022-08-02T05:44:38.375Z,2.65
2022-08-02T05:45:41.416Z,2.03
2022-08-02T05:46:43.962Z,2.30
2022-08-02T05:47:46.395Z,3.15
2022-08-02T05:48:49.099Z,2.72
2022-08-02T05:49:51.662Z,2.83
2022-08-02T05:51:03.997Z,3.58
2022-08-02T05:53:30.212Z,2.28
2022-08-02T05:54:53.646Z,2.80
2022-08-02T05:56:08.842Z,2.85
2022-08-02T05:57:46.096Z,3.28
2022-08-02T05:58:57.399Z,2.60
2022-08-02T06:00:11.469Z,2.08
2022-08-02T06:01:27.327Z,2.70
2022-08-02T06:02:44.018Z,2.47
2022-08-02T06:03:52.113Z,1.70
2022-08-02T06:05:05.707Z,2.45
2022-08-02T06:06:14.089Z,2.15
2022-08-02T06:07:19.636Z,3.20
2022-08-02T06:08:26.187Z,2.05
2022-08-02T06:09:29.398Z,2.80
2022-08-02T06:10:32.077Z,4.38
2022-08-02T06:11:37.110Z,3.00
2022-08-02T06:13:01.359Z,2.13
2022-08-02T06:14:05.690Z,2.63
2022-08-02T06:15:08.429Z,2.65
2022-08-02T06:16:14.111Z,2.58
2022-08-02T06:17:18.072Z,3.10
2022-08-02T06:18:28.178Z,2.45
2022-08-02T06:19:47.051Z,3.10
2022-08-02T06:20:58.650Z,2.88
2022-08-02T06:22:33.597Z,2.72
2022-08-02T06:23:42.148Z,2.50
2022-08-02T06:25:02.442Z,2.20
2022-08-02T06:26:07.773Z,2.50
2022-08-02T06:27:13.461Z,2.72
2022-08-02T06:28:17.071Z,2.75
2022-08-02T06:29:21.067Z,2.50
2022-08-02T06:30:26.120Z,2.30
2022-08-02T06:31:28.872Z,2.10
2022-08-02T06:32:34.251Z,2.00
2022-08-02T06:33:36.832Z,2.08
2022-08-02T06:34:39.943Z,2.40
2022-08-02T06:35:51.976Z,1.90
2022-08-02T06:37:13.946Z,2.17
2022-08-02T06:38:24.156Z,2.60
2022-08-02T06:39:40.556Z,2.53
2022-08-02T06:41:12.687Z,2.78
2022-08-02T06:42:28.841Z,2.20
2022-08-02T06:43:54.500Z,2.58
2022-08-02T06:44:58.398Z,2.28
2022-08-02T06:47:09.530Z,2.13
2022-08-02T06:47:25.165Z,2.33
2022-08-02T06:48:27.514Z,2.10
2022-08-02T06:49:51.347Z,1.88
2022-08-02T06:50:52.318Z,2.20
2022-08-02T06:51:54.826Z,2.78
2022-08-02T06:52:57.246Z,2.45
2022-08-02T06:53:59.565Z,2.65
2022-08-02T06:55:04.271Z,1.98
2022-08-02T06:56:07.167Z,2.92
2022-08-02T06:57:11.469Z,2.30
2022-08-02T06:58:14.249Z,2.40
2022-08-02T06:59:16.561Z,2.65
2022-08-02T07:00:18.875Z,2.55
2022-08-02T07:01:21.576Z,2.60
2022-08-02T07:02:24.455Z,2.50
2022-08-02T07:03:26.961Z,2.83
2022-08-02T07:04:29.629Z,2.33
2022-08-02T07:05:32.014Z,2.15
2022-08-02T07:06:34.407Z,2.80
2022-08-02T07:07:36.921Z,2.40
2022-08-02T07:08:39.583Z,2.35
2022-08-02T07:09:56.783Z,2.50
2022-08-02T07:11:04.042Z,2.58
2022-08-02T07:12:07.673Z,2.20
2022-08-02T07:13:10.820Z,2.65
2022-08-02T07:14:13.232Z,2.63
2022-08-02T07:15:16.443Z,2.50
2022-08-02T07:16:18.926Z,2.63
2022-08-02T07:17:21.332Z,2.30
2022-08-02T07:18:24.604Z,2.55
2022-08-02T07:19:37.456Z,2.50
2022-08-02T07:20:44.275Z,2.22
2022-08-02T07:21:57.760Z,1.98
2022-08-02T07:23:03.234Z,2.63
2022-08-02T07:24:05.808Z,2.08
2022-08-02T07:25:09.079Z,2.47
2022-08-02T07:26:11.445Z,2.13
2022-08-02T07:27:13.935Z,2.15
2022-08-02T07:28:24.086Z,2.55
2022-08-02T07:29:27.134Z,2.70
2022-08-02T07:30:36.166Z,2.63
2022-08-02T07:31:38.530Z,2.33
2022-08-02T07:32:40.945Z,2.20
2022-08-02T07:33:46.794Z,2.20
2022-08-02T07:34:52.523Z,2.17
2022-08-02T07:35:57.994Z,2.20
2022-08-02T07:37:04.393Z,2.50
2022-08-02T07:38:09.585Z,2.35
2022-08-02T07:39:12.919Z,2.45
2022-08-02T07:40:19.996Z,2.35
2022-08-02T07:41:22.937Z,2.30
2022-08-02T07:42:25.689Z,1.85
2022-08-02T07:43:28.161Z,1.98
2022-08-02T07:44:34.716Z,2.17
2022-08-02T07:45:45.807Z,2.10
2022-08-02T07:46:59.617Z,2.13
2022-08-02T07:48:02.053Z,1.98
2022-08-02T07:49:04.581Z,1.80
2022-08-02T07:50:07.776Z,1.90
2022-08-02T07:51:13.008Z,1.90
2022-08-02T07:52:20.643Z,2.50
2022-08-02T07:53:50.142Z,2.10
2022-08-02T07:54:45.339Z,2.10
2022-08-02T07:55:47.594Z,1.90
2022-08-02T07:56:57.470Z,1.90
2022-08-02T07:58:01.283Z,1.70
2022-08-02T07:59:05.028Z,2.03
2022-08-02T08:00:09.695Z,1.90
2022-08-02T08:01:14.927Z,1.83
2022-08-02T08:02:17.926Z,1.90
2022-08-02T08:03:20.182Z,1.85
2022-08-02T08:04:22.504Z,1.95
2022-08-02T08:05:24.850Z,1.73
2022-08-02T08:06:28.902Z,1.90
2022-08-02T08:07:31.484Z,1.70
2022-08-02T08:08:35.014Z,1.58
2022-08-02T08:09:41.943Z,1.52
2022-08-02T08:10:44.758Z,1.60
2022-08-02T08:11:47.176Z,1.73
2022-08-02T08:12:49.592Z,1.30
2022-08-02T08:13:52.119Z,1.75
2022-08-02T08:14:54.508Z,1.83
2022-08-02T08:15:56.921Z,1.55
2022-08-02T08:16:59.349Z,1.38
2022-08-02T08:18:03.225Z,1.52
2022-08-02T08:19:05.873Z,1.95
2022-08-02T08:20:11.757Z,2.00
2022-08-02T08:21:16.415Z,1.80
2022-08-02T08:22:19.617Z,1.70
2022-08-02T08:23:22.122Z,1.65
2022-08-02T08:24:24.390Z,1.60
2022-08-02T08:25:27.184Z,1.42
2022-08-02T08:26:29.899Z,1.70
2022-08-02T08:27:32.227Z,1.40
2022-08-02T08:28:35.583Z,1.67
2022-08-02T08:29:37.962Z,1.60
2022-08-02T08:30:42.043Z,1.60
2022-08-02T08:31:44.369Z,1.63
2022-08-02T08:32:46.696Z,1.58
2022-08-02T08:33:48.966Z,1.65
2022-08-02T08:34:51.391Z,1.40
2022-08-02T08:35:54.482Z,1.70
2022-08-02T08:36:57.308Z,1.63
2022-08-02T08:38:02.051Z,1.42
2022-08-02T08:39:08.769Z,1.70
2022-08-02T08:40:12.353Z,1.67
2022-08-02T08:41:17.197Z,1.80
2022-08-02T08:42:19.568Z,1.63
2022-08-02T08:43:21.988Z,1.65
2022-08-02T08:44:24.414Z,1.60
2022-08-02T08:45:26.939Z,1.42
2022-08-02T08:46:34.493Z,1.77
2022-08-02T08:47:42.791Z,1.40
2022-08-02T08:48:48.653Z,1.85
2022-08-02T08:49:54.936Z,1.40
2022-08-02T08:51:04.553Z,1.63
2022-08-02T08:52:07.755Z,1.60
2022-08-02T08:53:15.637Z,1.80
2022-08-02T08:54:18.953Z,1.63
2022-08-02T08:55:26.691Z,1.63
2022-08-02T08:56:33.018Z,1.80
2022-08-02T08:57:39.859Z,1.60
2022-08-02T08:58:44.211Z,1.40
2022-08-02T08:59:46.529Z,1.80
2022-08-02T09:00:49.184Z,1.55
2022-08-02T09:01:55.490Z,1.90
2022-08-02T09:02:58.802Z,1.90
2022-08-02T09:04:01.745Z,1.50
2022-08-02T09:05:04.375Z,1.63
2022-08-02T09:06:06.817Z,1.85
2022-08-02T09:07:09.389Z,1.73
2022-08-02T09:08:16.696Z,1.50
2022-08-02T09:09:19.389Z,1.83
2022-08-02T09:10:34.669Z,1.63
2022-08-02T09:11:36.924Z,1.50
2022-08-02T09:12:39.234Z,1.67
2022-08-02T09:13:50.875Z,1.48
2022-08-02T09:14:53.184Z,1.45
2022-08-02T09:16:12.170Z,1.60
2022-08-02T09:17:15.664Z,1.63
2022-08-02T09:18:18.562Z,1.65
2022-08-02T09:19:26.843Z,1.83
2022-08-02T09:20:30.870Z,1.70
2022-08-02T09:21:37.987Z,2.10
2022-08-02T09:22:40.299Z,1.60
2022-08-02T09:23:52.991Z,1.80
2022-08-02T09:24:55.378Z,1.80
2022-08-02T09:26:01.614Z,1.70
2022-08-02T09:27:12.108Z,1.55
2022-08-02T09:28:15.072Z,1.75
2022-08-02T09:29:19.262Z,1.65
2022-08-02T09:30:26.890Z,1.90
2022-08-02T09:31:29.159Z,1.75
2022-08-02T09:32:43.889Z,1.80
2022-08-02T09:33:52.735Z,1.90
2022-08-02T09:34:55.214Z,1.65
2022-08-02T09:36:08.575Z,1.52
2022-08-02T09:37:25.285Z,1.65
2022-08-02T09:38:28.684Z,1.55
2022-08-02T09:39:46.620Z,1.90
2022-08-02T09:40:50.559Z,1.70
2022-08-02T09:41:53.220Z,1.45
2022-08-02T09:42:59.358Z,1.70
2022-08-02T09:44:06.466Z,1.88
2022-08-02T09:45:09.602Z,1.73
2022-08-02T09:46:16.560Z,1.70
2022-08-02T09:47:18.913Z,2.00
2022-08-02T09:48:21.185Z,1.58
2022-08-02T09:49:23.607Z,1.70
2022-08-02T09:50:25.921Z,1.60
2022-08-02T09:51:31.066Z,1.77
2022-08-02T09:52:37.356Z,1.50
2022-08-02T09:54:48.946Z,1.52
2022-08-02T09:55:57.691Z,1.55
2022-08-02T09:57:01.836Z,1.70
2022-08-02T09:58:20.563Z,1.90
2022-08-02T09:59:25.088Z,1.60
2022-08-02T10:00:50.841Z,1.90
2022-08-02T10:02:01.555Z,1.65
2022-08-02T10:03:21.752Z,1.75
2022-08-02T10:04:27.036Z,1.95
2022-08-02T10:05:32.188Z,1.63
2022-08-02T10:06:42.326Z,1.88
2022-08-02T10:07:44.925Z,1.83
2022-08-02T10:08:47.855Z,1.67
2022-08-02T10:09:51.909Z,1.60
2022-08-02T10:11:01.612Z,1.83
2022-08-02T10:12:05.562Z,2.00
2022-08-02T10:13:08.814Z,1.80
2022-08-02T10:14:12.274Z,1.70
2022-08-02T10:15:16.471Z,1.85
2022-08-02T10:16:23.450Z,1.80
2022-08-02T10:17:26.318Z,1.67
2022-08-02T10:18:38.928Z,1.63
2022-08-02T10:20:03.127Z,1.70
2022-08-02T10:21:10.241Z,1.95
2022-08-02T10:22:15.422Z,1.95
2022-08-02T10:23:21.315Z,1.80
2022-08-02T10:24:27.942Z,2.08
2022-08-02T10:25:31.314Z,1.98
2022-08-02T10:26:34.681Z,2.00
2022-08-02T10:28:03.636Z,2.03
2022-08-02T10:29:01.689Z,1.85
2022-08-02T10:30:04.546Z,2.10
2022-08-02T10:31:08.121Z,1.90
2022-08-02T10:32:13.970Z,2.38
2022-08-02T10:33:19.283Z,2.00
2022-08-02T10:34:24.886Z,1.77
2022-08-02T10:35:38.069Z,1.77
2022-08-02T10:36:42.218Z,1.95
2022-08-02T10:37:47.806Z,1.95
2022-08-02T10:38:50.704Z,1.90
2022-08-02T10:39:56.927Z,1.77
2022-08-02T10:40:59.442Z,2.20
2022-08-02T10:42:01.755Z,2.00
2022-08-02T10:43:04.112Z,1.98
2022-08-02T10:44:06.542Z,1.70
2022-08-02T10:45:26.988Z,1.90
2022-08-02T10:46:34.819Z,1.70
2022-08-02T10:47:37.477Z,1.80
2022-08-02T10:49:13.772Z,1.80
2022-08-02T10:50:45.702Z,1.85
2022-08-02T10:52:03.324Z,1.70
2022-08-02T10:53:28.750Z,1.90
2022-08-02T10:54:37.129Z,1.65
2022-08-02T10:55:46.217Z,1.70
2022-08-02T10:56:50.628Z,1.90
2022-08-02T10:58:26.305Z,1.70
2022-08-02T10:59:36.291Z,1.50
2022-08-02T11:00:38.932Z,1.75
2022-08-02T11:01:44.456Z,1.77
2022-08-02T11:02:53.242Z,1.90
2022-08-02T11:04:00.372Z,1.42
2022-08-02T11:05:12.599Z,1.50
2022-08-02T11:06:25.957Z,1.70
2022-08-02T11:07:35.200Z,1.48
2022-08-02T11:08:37.794Z,1.67
2022-08-02T11:09:42.048Z,1.77
2022-08-02T11:10:44.541Z,1.70
2022-08-02T11:12:02.379Z,1.48
2022-08-02T11:13:16.870Z,1.88
2022-08-02T11:14:19.268Z,1.50
2022-08-02T11:15:21.691Z,1.40
2022-08-02T11:16:56.153Z,1.67
2022-08-02T11:18:01.634Z,1.70
2022-08-02T11:19:06.691Z,1.40
2022-08-02T11:20:12.132Z,1.63
2022-08-02T11:21:21.010Z,1.55
2022-08-02T11:22:25.809Z,1.55
2022-08-02T11:23:44.219Z,1.50
2022-08-02T11:24:48.220Z,1.45
2022-08-02T11:26:03.528Z,1.70
2022-08-02T11:27:08.945Z,1.50
2022-08-02T11:28:12.216Z,1.23
2022-08-02T11:29:15.808Z,1.40
2022-08-02T11:30:19.800Z,1.33
2022-08-02T11:31:38.767Z,1.50
2022-08-02T11:32:41.588Z,1.70
2022-08-02T11:33:44.152Z,1.42
2022-08-02T11:34:49.019Z,1.50
2022-08-02T11:35:51.931Z,1.65
2022-08-02T11:36:54.270Z,1.50
2022-08-02T11:37:58.625Z,1.58
2022-08-02T11:39:15.746Z,1.73
2022-08-02T11:40:19.549Z,1.52
2022-08-02T11:41:46.516Z,1.42
2022-08-02T11:42:47.843Z,1.40
2022-08-02T11:43:56.188Z,1.45
2022-08-02T11:44:58.715Z,1.30
2022-08-02T11:46:05.011Z,1.33
2022-08-02T11:47:08.352Z,1.38
2022-08-02T11:48:10.773Z,1.38
2022-08-02T11:49:18.345Z,1.40
2022-08-02T11:50:29.977Z,1.40
2022-08-02T11:51:32.959Z,1.50
2022-08-02T11:52:36.029Z,1.40
2022-08-02T11:53:42.647Z,1.63
2022-08-02T11:54:45.279Z,1.05
2022-08-02T11:55:47.598Z,1.23
2022-08-02T11:56:49.918Z,1.27
2022-08-02T11:58:04.738Z,1.15
2022-08-02T11:59:10.259Z,1.15
2022-08-02T12:00:18.374Z,1.40
2022-08-02T12:01:20.832Z,1.38
2022-08-02T12:02:32.638Z,1.20
2022-08-02T12:03:39.236Z,1.50
2022-08-02T12:04:42.181Z,1.45
2022-08-02T12:06:05.276Z,1.38
2022-08-02T12:07:10.023Z,1.27
2022-08-02T12:08:12.288Z,1.20
2022-08-02T12:09:19.039Z,1.10
2022-08-02T12:10:24.105Z,1.30
2022-08-02T12:11:26.425Z,1.40
2022-08-02T12:12:56.259Z,1.35
2022-08-02T12:13:59.689Z,1.40
2022-08-02T12:15:02.031Z,1.20
2022-08-02T12:16:31.154Z,1.33
2022-08-02T12:17:52.419Z,1.25
2022-08-02T12:19:14.329Z,1.23
2022-08-02T12:20:17.288Z,1.30
2022-08-02T12:21:25.382Z,1.30
2022-08-02T12:22:28.087Z,1.27
2022-08-02T12:23:30.679Z,1.33
2022-08-02T12:24:33.754Z,1.08
2022-08-02T12:25:36.168Z,1.17
2022-08-02T12:26:45.965Z,1.25
2022-08-02T12:27:50.689Z,1.10
2022-08-02T12:28:57.807Z,1.17
2022-08-02T12:30:06.332Z,1.45
2022-08-02T12:31:14.210Z,1.20
2022-08-02T12:32:24.125Z,1.40
2022-08-02T12:33:29.155Z,1.27
2022-08-02T12:34:34.555Z,1.30
2022-08-02T12:35:36.948Z,1.55
2022-08-02T12:36:39.939Z,1.30
2022-08-02T12:37:47.481Z,1.38
2022-08-02T12:39:01.440Z,1.23
2022-08-02T12:40:25.283Z,1.40
2022-08-02T12:41:31.592Z,1.30
2022-08-02T12:42:47.343Z,1.23
2022-08-02T12:43:50.686Z,1.70
2022-08-02T12:45:00.176Z,1.50
2022-08-02T12:46:02.618Z,1.30
2022-08-02T12:47:12.538Z,1.20
2022-08-02T12:48:15.279Z,1.45
2022-08-02T12:49:19.164Z,1.30
2022-08-02T12:50:30.496Z,1.35
2022-08-02T12:51:51.412Z,1.52
2022-08-02T12:53:12.307Z,1.30
2022-08-02T12:54:31.782Z,1.40
2022-08-02T12:56:02.419Z,1.63
2022-08-02T12:57:14.671Z,1.20
2022-08-02T12:58:17.826Z,1.25
2022-08-02T12:59:39.034Z,1.20
2022-08-02T13:00:42.427Z,1.20
2022-08-02T13:01:45.787Z,1.25
2022-08-02T13:02:48.216Z,1.20
2022-08-02T13:04:10.963Z,1.25
2022-08-02T13:05:13.743Z,1.10
2022-08-02T13:06:40.825Z,1.45
2022-08-02T13:07:39.710Z,1.20
2022-08-02T13:08:42.063Z,1.20
2022-08-02T13:09:45.975Z,1.38
2022-08-02T13:10:48.420Z,1.10
2022-08-02T13:11:50.728Z,1.20
2022-08-02T13:12:53.161Z,1.10
2022-08-02T13:13:55.908Z,1.10
2022-08-02T13:14:58.413Z,1.05
2022-08-02T13:16:00.915Z,1.30
2022-08-02T13:17:03.221Z,1.25
2022-08-02T13:18:05.581Z,1.20
2022-08-02T13:19:09.237Z,1.20
2022-08-02T13:20:12.371Z,1.40
2022-08-02T13:21:26.879Z,1.58
2022-08-02T13:22:38.193Z,1.20
2022-08-02T13:23:55.083Z,1.30
2022-08-02T13:24:57.661Z,1.80
2022-08-02T13:26:00.509Z,2.15
2022-08-02T13:27:04.439Z,1.05
2022-08-02T13:28:10.264Z,1.15
2022-08-02T13:29:15.255Z,1.40
2022-08-02T13:30:18.086Z,1.17
2022-08-02T13:31:35.905Z,1.40
2022-08-02T13:32:39.241Z,1.20
2022-08-02T13:33:41.559Z,0.90
2022-08-02T13:34:44.477Z,1.13
2022-08-02T13:35:47.880Z,1.20
2022-08-02T13:36:50.195Z,0.95
2022-08-02T13:37:52.721Z,1.20
2022-08-02T13:38:55.388Z,1.20
2022-08-02T13:40:19.901Z,1.20
2022-08-02T13:41:20.020Z,1.40
2022-08-02T13:42:22.953Z,1.20
2022-08-02T13:43:26.357Z,1.25
2022-08-02T13:44:48.878Z,1.40
2022-08-02T13:45:51.477Z,1.05
2022-08-02T13:46:53.763Z,1.52
2022-08-02T13:48:03.309Z,1.30
2022-08-02T13:49:08.009Z,1.23
2022-08-02T13:50:10.503Z,1.30
2022-08-02T13:51:14.897Z,1.05
2022-08-02T13:52:17.549Z,1.17
2022-08-02T13:53:20.167Z,1.10
2022-08-02T13:54:22.410Z,3.90
2022-08-02T13:55:24.951Z,3.47
2022-08-02T13:56:35.810Z,2.38
2022-08-02T13:57:38.699Z,1.00
2022-08-02T13:58:43.740Z,4.00
2022-08-02T13:59:56.938Z,6.47
2022-08-02T14:01:00.636Z,1.60
2022-08-02T14:02:03.128Z,4.45
2022-08-02T14:03:07.229Z,1.13
2022-08-02T14:04:09.763Z,1.20
2022-08-02T14:05:12.088Z,0.90
2022-08-02T14:06:14.462Z,1.00
2022-08-02T14:07:16.760Z,1.10
2022-08-02T14:08:20.668Z,1.13
2022-08-02T14:09:22.916Z,1.10
2022-08-02T14:10:26.308Z,0.80
2022-08-02T14:11:32.721Z,0.95
2022-08-02T14:12:35.060Z,0.98
2022-08-02T14:13:37.371Z,1.10
2022-08-02T14:14:39.743Z,1.00
2022-08-02T14:15:42.925Z,1.40
2022-08-02T14:16:45.737Z,1.15
2022-08-02T14:17:48.157Z,1.17
2022-08-02T14:18:55.163Z,1.45
2022-08-02T14:19:57.407Z,1.45
2022-08-02T14:20:59.703Z,1.40
2022-08-02T14:22:11.003Z,1.10
2022-08-02T14:23:14.814Z,0.95
2022-08-02T14:24:18.357Z,1.33
2022-08-02T14:25:20.749Z,1.15
2022-08-02T14:26:26.636Z,1.00
2022-08-02T14:27:31.191Z,1.08
2022-08-02T14:28:41.875Z,1.15
2022-08-02T14:29:44.193Z,1.05
2022-08-02T14:30:46.446Z,1.20
2022-08-02T14:31:48.726Z,1.20
2022-08-02T14:32:51.046Z,1.00
2022-08-02T14:33:53.310Z,1.10
2022-08-02T14:34:55.560Z,1.30
2022-08-02T14:35:57.908Z,1.10
2022-08-02T14:37:00.235Z,1.40
2022-08-02T14:38:02.624Z,2.08
2022-08-02T14:39:05.407Z,1.40
2022-08-02T14:40:28.137Z,1.20
2022-08-02T14:41:33.699Z,1.35
2022-08-02T14:42:36.430Z,1.00
2022-08-02T14:43:57.594Z,1.30
2022-08-02T14:45:00.215Z,1.10
2022-08-02T14:46:02.980Z,1.15
2022-08-02T14:47:09.735Z,1.20